createdAt,value
2022-12-05T00:01:38.938Z,77.71
2022-12-05T00:04:08.596Z,77.60
2022-12-05T00:06:36.718Z,77.57
2022-12-05T00:09:04.976Z,77.50
2022-12-05T00:11:34.315Z,77.70
2022-12-05T00:14:03.544Z,77.35
2022-12-05T00:16:34.912Z,77.76
2022-12-05T00:19:03.242Z,77.44
2022-12-05T00:21:32.795Z,77.52
2022-12-05T00:24:00.679Z,77.37
2022-12-05T00:26:27.892Z,77.21
2022-12-05T00:28:54.881Z,76.66
2022-12-05T00:31:24.037Z,77.67
2022-12-05T00:33:51.911Z,77.60
2022-12-05T00:36:26.029Z,77.71
2022-12-05T00:38:53.502Z,77.48
2022-12-05T00:41:26.076Z,77.89
2022-12-05T00:43:54.080Z,77.08
2022-12-05T00:46:23.459Z,77.23
2022-12-05T00:48:52.256Z,77.49
2022-12-05T00:51:28.419Z,77.53
2022-12-05T00:53:58.195Z,77.91
2022-12-05T00:56:26.204Z,77.43
2022-12-05T00:58:56.105Z,77.44
2022-12-05T01:01:32.739Z,76.62
2022-12-05T01:04:02.120Z,77.10
2022-12-05T01:06:29.065Z,77.17
2022-12-05T01:08:57.363Z,77.68
2022-12-05T01:11:25.813Z,77.87
2022-12-05T01:13:53.490Z,78.21
2022-12-05T01:16:24.759Z,77.71
2022-12-05T01:18:52.265Z,77.78
2022-12-05T01:21:20.328Z,77.85
2022-12-05T01:23:47.316Z,77.84
2022-12-05T01:26:16.235Z,77.92
2022-12-05T01:28:43.620Z,77.09
2022-12-05T01:31:22.188Z,76.72
2022-12-05T01:33:49.232Z,77.38
2022-12-05T01:36:16.051Z,77.96
2022-12-05T01:38:43.509Z,77.43
2022-12-05T01:41:15.012Z,77.16
2022-12-05T01:44:00.454Z,77.46
2022-12-05T01:46:29.689Z,77.25
2022-12-05T01:49:04.191Z,78.22
2022-12-05T01:51:33.937Z,77.29
2022-12-05T01:54:02.163Z,77.70
2022-12-05T01:56:29.152Z,77.57
2022-12-05T01:58:57.447Z,76.83
2022-12-05T02:01:24.169Z,76.59
2022-12-05T02:03:54.534Z,76.46
2022-12-05T02:06:22.774Z,76.63
2022-12-05T02:08:49.912Z,77.42
2022-12-05T02:11:16.776Z,76.81
2022-12-05T02:13:59.592Z,76.93
2022-12-05T02:16:50.283Z,76.47
2022-12-05T02:19:41.366Z,76.93
2022-12-05T02:22:08.067Z,76.96
2022-12-05T02:24:43.809Z,76.76
2022-12-05T02:27:39.514Z,76.70
2022-12-05T02:30:10.471Z,76.73
2022-12-05T02:32:49.419Z,77.13
2022-12-05T02:35:37.415Z,76.96
2022-12-05T02:38:28.780Z,76.78
2022-12-05T02:41:36.520Z,77.40
2022-12-05T02:44:17.498Z,77.11
2022-12-05T02:46:47.219Z,76.88
2022-12-05T02:49:20.924Z,77.14
2022-12-05T02:51:52.991Z,76.83
2022-12-05T02:54:41.412Z,76.77
2022-12-05T02:57:10.851Z,76.58
2022-12-05T02:59:40.747Z,76.67
2022-12-05T03:02:24.484Z,76.77
2022-12-05T03:04:51.311Z,76.66
2022-12-05T03:07:22.384Z,76.79
2022-12-05T03:09:59.591Z,76.34
2022-12-05T03:12:31.117Z,76.54
2022-12-05T03:15:10.916Z,76.71
2022-12-05T03:18:04.587Z,76.68
2022-12-05T03:20:39.614Z,75.97
2022-12-05T03:23:21.057Z,76.96
2022-12-05T03:26:03.347Z,76.80
2022-12-05T03:28:38.711Z,76.58
2022-12-05T03:31:11.426Z,76.96
2022-12-05T03:33:44.784Z,77.13
2022-12-05T03:36:29.889Z,76.57
2022-12-05T03:39:22.943Z,77.18
2022-12-05T03:42:00.594Z,76.73
2022-12-05T03:44:38.191Z,76.98
2022-12-05T03:47:20.959Z,76.83
2022-12-05T03:49:54.062Z,76.77
2022-12-05T03:56:19.935Z,76.49
2022-12-05T03:58:59.662Z,76.71
2022-12-05T04:01:30.007Z,75.99
2022-12-05T04:04:02.614Z,76.43
2022-12-05T04:06:33.567Z,76.15
2022-12-05T04:09:06.027Z,76.97
2022-12-05T04:11:36.619Z,76.19
2022-12-05T17:18:46.922Z,83.89
2022-12-05T17:21:16.983Z,84.68
2022-12-05T17:23:48.135Z,84.06
2022-12-05T17:26:21.441Z,85.53
2022-12-05T17:28:49.274Z,85.36
2022-12-05T17:31:18.627Z,85.77
2022-12-05T17:33:46.715Z,85.88
2022-12-05T17:36:16.283Z,86.10
2022-12-05T17:38:43.647Z,86.53
2022-12-05T17:41:22.554Z,86.67
2022-12-05T17:44:03.268Z,87.44
2022-12-05T17:46:30.083Z,87.17
2022-12-05T17:48:56.888Z,87.29
2022-12-05T17:51:24.532Z,86.99
2022-12-05T17:54:32.325Z,87.53
2022-12-05T17:57:21.856Z,87.16
2022-12-05T17:59:48.619Z,86.97
2022-12-05T18:02:17.545Z,87.45
2022-12-05T18:04:47.590Z,87.68
2022-12-05T18:07:15.431Z,86.70
2022-12-05T18:09:52.512Z,87.14
2022-12-05T18:12:19.296Z,86.77
2022-12-05T18:14:46.003Z,86.74
2022-12-05T18:17:14.560Z,87.75
2022-12-05T18:19:41.378Z,86.95
2022-12-05T18:22:08.088Z,87.22
2022-12-05T18:24:38.500Z,87.45
2022-12-05T18:27:05.480Z,87.28
2022-12-05T18:29:32.294Z,87.00
2022-12-05T18:31:59.042Z,87.47
2022-12-05T18:34:26.024Z,87.57
2022-12-05T18:36:52.769Z,87.08
2022-12-05T18:39:19.686Z,86.91
2022-12-05T18:41:46.329Z,87.14
2022-12-05T18:44:13.165Z,87.37
2022-12-05T18:46:40.081Z,86.91
2022-12-05T18:49:09.382Z,86.28
2022-12-05T18:51:36.045Z,85.29
2022-12-05T18:54:08.373Z,85.21
2022-12-05T18:56:36.198Z,85.03
2022-12-05T18:59:05.553Z,85.01
2022-12-05T19:01:36.184Z,84.28
2022-12-05T19:04:04.591Z,84.42
2022-12-05T19:06:33.519Z,83.88
2022-12-05T19:09:04.113Z,83.49
2022-12-05T19:11:31.184Z,83.33
2022-12-05T19:14:00.789Z,82.72
2022-12-05T19:16:31.935Z,82.74
2022-12-05T19:19:01.197Z,82.62
2022-12-05T19:21:32.427Z,82.58
2022-12-05T19:23:59.294Z,81.90
2022-12-05T19:26:29.258Z,82.54
2022-12-05T19:28:56.807Z,82.14
2022-12-05T19:31:37.370Z,82.60
2022-12-05T19:34:05.885Z,81.88
2022-12-05T19:37:29.379Z,82.73
2022-12-05T19:39:56.151Z,82.79
2022-12-05T19:42:22.888Z,82.45
2022-12-05T19:44:49.530Z,82.13
2022-12-05T19:47:16.147Z,81.93
2022-12-05T19:49:42.755Z,82.30
2022-12-05T19:52:09.410Z,81.93
2022-12-05T19:54:36.013Z,81.75
2022-12-05T19:57:02.593Z,82.26
2022-12-05T19:59:29.252Z,81.36
2022-12-05T20:01:55.953Z,81.64
2022-12-05T20:04:22.602Z,81.10
2022-12-05T20:06:50.566Z,81.23
2022-12-05T20:09:20.018Z,81.01
2022-12-05T20:11:54.649Z,80.94
2022-12-05T20:14:25.100Z,81.50
2022-12-05T20:16:56.737Z,81.28
2022-12-05T20:19:23.725Z,80.82
2022-12-05T20:21:50.406Z,81.22
2022-12-05T20:24:16.994Z,81.13
2022-12-05T20:26:44.799Z,80.68
2022-12-05T20:29:11.878Z,80.61
2022-12-05T20:31:40.816Z,80.60
2022-12-05T20:34:09.417Z,79.78
2022-12-05T20:36:38.167Z,80.33
2022-12-05T20:39:15.349Z,80.16
2022-12-05T20:41:42.091Z,79.94
2022-12-05T20:44:08.987Z,80.87
2022-12-05T20:46:36.914Z,80.53
2022-12-05T20:49:03.832Z,80.61
2022-12-05T20:51:33.020Z,80.46
2022-12-05T20:54:02.119Z,80.57
2022-12-05T20:56:31.882Z,80.67
2022-12-05T20:59:01.069Z,80.43
2022-12-05T21:01:30.133Z,80.03
2022-12-05T21:03:57.942Z,80.74
2022-12-05T21:06:24.465Z,80.94
2022-12-05T21:08:51.930Z,80.35
2022-12-05T21:11:19.682Z,80.30
2022-12-05T21:13:46.425Z,79.22
2022-12-05T21:16:17.592Z,79.17
2022-12-05T21:18:46.390Z,79.12
2022-12-05T21:21:21.766Z,78.98
2022-12-05T21:23:53.555Z,79.48
2022-12-05T21:26:23.346Z,78.96
2022-12-05T21:28:50.283Z,79.64
2022-12-05T21:31:22.972Z,79.51
2022-12-05T21:33:52.482Z,79.42
2022-12-05T21:36:19.879Z,79.98
2022-12-05T21:38:52.402Z,79.41
2022-12-05T21:41:22.323Z,79.49
2022-12-05T21:43:54.048Z,79.71
2022-12-05T21:46:22.251Z,80.41
2022-12-05T21:48:48.850Z,79.78
2022-12-05T21:51:15.722Z,79.79
2022-12-05T21:53:42.397Z,79.95
2022-12-05T21:56:11.958Z,79.77
2022-12-05T21:58:42.306Z,79.49
2022-12-05T22:01:10.802Z,79.97
2022-12-05T22:03:37.890Z,80.41
2022-12-05T22:06:10.514Z,80.06
2022-12-05T22:08:38.488Z,80.52
2022-12-05T22:11:05.061Z,80.18
2022-12-05T22:13:32.429Z,79.69
2022-12-05T22:15:59.689Z,80.02
2022-12-05T22:18:27.850Z,79.92
2022-12-05T22:20:57.608Z,80.18
2022-12-05T22:23:25.123Z,80.13
2022-12-05T22:26:14.709Z,79.83
2022-12-05T22:28:41.606Z,79.68
2022-12-05T22:31:10.949Z,80.12
2022-12-05T22:33:38.718Z,79.79
2022-12-05T22:36:10.178Z,79.84
2022-12-05T22:38:39.627Z,79.45
2022-12-05T22:41:09.256Z,79.27
2022-12-05T22:43:37.805Z,79.32
2022-12-05T22:46:12.879Z,78.98
2022-12-05T22:48:39.828Z,78.80
2022-12-05T22:51:08.214Z,78.88
2022-12-05T22:53:35.819Z,78.79
2022-12-05T22:56:14.504Z,79.14
2022-12-05T22:58:42.464Z,78.98
2022-12-05T23:01:20.733Z,79.41
2022-12-05T23:03:50.221Z,79.02
2022-12-05T23:06:18.286Z,79.18
2022-12-05T23:08:47.938Z,79.20
2022-12-05T23:11:16.850Z,78.72
2022-12-05T23:13:43.578Z,79.12
2022-12-05T23:16:16.058Z,78.82
2022-12-05T23:18:49.713Z,79.12
2022-12-05T23:21:21.464Z,78.97
2022-12-05T23:23:49.810Z,78.99
2022-12-05T23:26:18.291Z,79.60
2022-12-05T23:28:45.045Z,79.83
2022-12-05T23:31:14.668Z,80.21
2022-12-05T23:33:41.717Z,79.80
2022-12-05T23:36:09.362Z,79.72
2022-12-05T23:38:41.091Z,79.83
2022-12-05T23:41:09.524Z,80.12
2022-12-05T23:43:36.906Z,79.74
2022-12-05T23:46:04.927Z,79.31
2022-12-05T23:48:32.558Z,79.29
2022-12-05T23:51:11.798Z,78.83
2022-12-05T23:53:40.927Z,79.17
2022-12-05T23:56:12.797Z,78.68
2022-12-05T23:58:40.287Z,78.58
